Moby Aki — IBVV — position and weather

sailwx.info

Track history (hours):
 
Tides and Currents Weather Stations Pressure Air Temp Water Temp Dewpoint Dewpoint Depression Visibility Wind Speed Wind Dir Waves Ship Positions

Moby Aki

Last reported at 2014-Sep-22 22:16 UTC. Time now 2014-Sep-23 18:31 UTC.
Position N 42°54' E 009°60'.

Length 175 m; draft 6.9 m.

Type: Passenger vessel. MMSI: 247132400.

Date/timePositionNaut miles runAvg speedWind from/ knotsBaromVisibWave heightAir tempDewpointWater temp
2014-Sep-22 22:16N 42°54' E 009°60'1419.6
2014-Sep-22 21:33N 43°08' E 010°03'2121.0
2014-Sep-22 20:33N 43°28' E 010°10'8 8.0
2014-Sep-22 19:33N 43°33' E 010°18'0 0.0
2014-Sep-22 18:33N 43°33' E 010°18'0 0.0
2014-Sep-22 17:33N 43°33' E 010°18'0 0.0
2014-Sep-22 16:34N 43°33' E 010°18'0 0.0
2014-Sep-22 15:33N 43°33' E 010°18'0 0.0
2014-Sep-22 14:33N 43°33' E 010°18'0 0.0
2014-Sep-22 13:33N 43°33' E 010°18'0 0.0
2014-Sep-22 12:33N 43°33' E 010°18'0 0.0
2014-Sep-22 11:33N 43°33' E 010°18'0 0.0
2014-Sep-22 10:33N 43°33' E 010°18'0 0.0
2014-Sep-22 09:33N 43°33' E 010°18'0 0.0
2014-Sep-22 08:33N 43°33' E 010°18'0 0.0
2014-Sep-22 07:33N 43°33' E 010°18'0 0.0
2014-Sep-22 06:33N 43°33' E 010°18'1 0.9
2014-Sep-22 05:33N 43°32' E 010°17'1110.9
2014-Sep-22 04:33N 43°23' E 010°09'2020.4
2014-Sep-22 03:33N 43°04' E 009°59'13118.7
2014-Sep-21 20:34N 40°55' E 009°32'0 0.2
2014-Sep-21 19:33N 40°55' E 009°31'3 2.9
2014-Sep-21 18:34N 40°55' E 009°35'2323.1
2014-Sep-21 17:33N 41°09' E 010°00'5426.0
2014-Sep-21 15:29N 41°41' E 010°58'1 0.2
2014-Sep-21 10:23N 41°40' E 010°57'3126.3
2014-Sep-21 09:13N 41°22' E 010°24'4525.2
2014-Sep-21 07:25N 40°56' E 009°35'3 3.3
2014-Sep-21 06:33N 40°55' E 009°31'1 0.7
2014-Sep-21 05:33N 40°55' E 009°32'13121.9
2014-Sep-20 23:34N 43°04' E 010°05'2323.5
2014-Sep-20 22:34N 43°27' E 010°12'7 7.2
2014-Sep-20 21:33N 43°33' E 010°18'2 1.7
2014-Sep-20 20:34N 43°32' E 010°16'2424.1
2014-Sep-20 19:33N 43°09' E 010°07'2726.2
2014-Sep-20 18:31N 42°42' E 009°59'7826.3
2014-Sep-20 15:34N 41°25' E 009°44'2824.5
2014-Sep-20 14:25N 40°57' E 009°41'6 3.5
2014-Sep-20 12:33N 40°55' E 009°33'12525.0
2014-Sep-20 07:33N 42°58' E 010°04'2727.0
2014-Sep-20 06:34N 43°25' E 010°11'10 9.8
2014-Sep-20 05:33N 43°33' E 010°18'0 0.0
2014-Sep-20 04:34N 43°33' E 010°18'1111.1
2014-Sep-20 03:34N 43°23' E 010°11'2322.9
2014-Sep-20 02:33N 43°01' E 010°05'9323.1
2014-Sep-19 22:33N 41°29' E 009°47'2323.2
2014-Sep-19 21:34N 41°06' E 009°44'1514.4
2014-Sep-19 20:33N 40°55' E 009°31'0 0.0
2014-Sep-19 19:33N 40°55' E 009°31'0 0.0
2014-Sep-19 18:27N 40°55' E 009°31'0 0.0
2014-Sep-19 14:27N 40°55' E 009°31'0 0.0
2014-Sep-19 13:33N 40°55' E 009°31'13021.6
2014-Sep-19 07:33N 43°03' E 010°04'2525.4
2014-Sep-19 06:34N 43°27' E 010°11'8 7.7
2014-Sep-19 05:33N 43°33' E 010°18'1 0.5
2014-Sep-19 04:33N 43°33' E 010°17'1918.8
2014-Sep-19 03:33N 43°15' E 010°09'13921.5
2014-Sep-18 21:05N 40°58' E 009°41'814.1
2014-Sep-18 20:33N 40°55' E 009°32'0 0.3
2014-Sep-18 19:32N 40°55' E 009°31'0 0.0
2014-Sep-18 18:28N 40°55' E 009°31'0 0.0
2014-Sep-18 17:31N 40°55' E 009°31'0 0.0
2014-Sep-18 16:07N 40°55' E 009°31'0 0.0
2014-Sep-18 15:31N 40°55' E 009°31'0 0.0
2014-Sep-18 14:31N 40°55' E 009°31'0 0.0
2014-Sep-18 13:31N 40°55' E 009°31'12821.5
2014-Sep-18 07:33N 43°02' E 010°03'2525.0
2014-Sep-18 06:34N 43°26' E 010°12'9 8.7
2014-Sep-18 05:33N 43°33' E 010°18'0 0.0
2014-Sep-18 04:33N 43°33' E 010°18'1111.3
2014-Sep-18 03:34N 43°23' E 010°12'2623.0
2014-Sep-18 02:26N 42°58' E 010°04'12123.3
2014-Sep-17 21:15N 40°58' E 009°43'9 8.9
2014-Sep-17 20:15N 40°55' E 009°31'0 0.0
2014-Sep-17 19:32N 40°55' E 009°31'0 0.0
2014-Sep-17 17:29N 40°55' E 009°31'0 0.0
2014-Sep-17 16:32N 40°55' E 009°31'0 0.0
2014-Sep-17 15:29N 40°55' E 009°31'0 0.0
2014-Sep-17 14:32N 40°55' E 009°31'0 0.0
2014-Sep-17 13:23N 40°55' E 009°31'10521.7
2014-Sep-17 08:33N 42°38' E 009°59'2525.4
2014-Sep-17 07:34N 43°03' E 010°05'2625.7
2014-Sep-17 06:34N 43°28' E 010°12'6 6.3
2014-Sep-17 05:33N 43°33' E 010°18'0 0.0
2014-Sep-17 04:33N 43°33' E 010°18'8 8.3
2014-Sep-17 03:34N 43°26' E 010°12'2322.5
2014-Sep-17 02:34N 43°04' E 010°05'13121.8
2014-Sep-16 20:33N 40°55' E 009°32'1 0.6
2014-Sep-16 19:32N 40°55' E 009°31'0 0.0
2014-Sep-16 17:32N 40°55' E 009°31'0 0.0
2014-Sep-16 15:05N 40°55' E 009°31'0 0.0
2014-Sep-16 14:32N 40°55' E 009°31'0 0.0
2014-Sep-16 13:14N 40°55' E 009°31'13022.8
2014-Sep-16 07:34N 43°02' E 010°05'2525.5
2014-Sep-16 06:34N 43°27' E 010°12'7 7.1
2014-Sep-16 05:33N 43°33' E 010°18'0 0.0
2014-Sep-16 04:33N 43°33' E 010°18'1413.9
2014-Sep-16 03:34N 43°20' E 010°11'2222.3
2014-Sep-16 02:33N 42°59' E 010°04'12520.9
2014-Sep-15 20:33N 40°55' E 009°32'1 0.5
2014-Sep-15 19:33N 40°55' E 009°31'0 0.0
2014-Sep-15 18:09N 40°55' E 009°31'0 0.0
2014-Sep-15 17:26N 40°55' E 009°31'0 0.0
2014-Sep-15 15:32N 40°55' E 009°31'0 0.0
2014-Sep-15 14:32N 40°55' E 009°31'0 0.0
2014-Sep-15 13:20N 40°55' E 009°31'12621.9
2014-Sep-15 07:33N 42°60' E 010°03'2626.1
2014-Sep-15 06:34N 43°25' E 010°11'10 9.7
2014-Sep-15 05:33N 43°33' E 010°18'0 0.0
2014-Sep-15 04:33N 43°33' E 010°18'9 8.6
2014-Sep-15 03:34N 43°26' E 010°12'2322.6
2014-Sep-15 02:33N 43°03' E 010°06'13118.0
2014-Sep-14 19:18N 40°55' E 009°31'0 0.0
2014-Sep-14 18:33N 40°55' E 009°31'7919.8
2014-Sep-14 14:33N 42°06' E 010°20'2626.6
2014-Sep-14 13:34N 42°31' E 010°30'2522.9
2014-Sep-14 12:28N 42°56' E 010°33'1 1.5
2014-Sep-14 11:29N 42°54' E 010°34'2425.9
2014-Sep-14 10:33N 42°30' E 010°30'10325.6
2014-Sep-14 06:31N 40°55' E 009°35'3 2.8
2014-Sep-14 05:33N 40°55' E 009°31'8219.8
2014-Sep-14 01:24N 42°16' E 009°54'7920.7
2014-Sep-13 21:34N 43°33' E 010°18'4 3.6
2014-Sep-13 20:34N 43°30' E 010°15'2625.6
2014-Sep-13 19:33N 43°05' E 010°07'6026.2
2014-Sep-13 17:16N 42°07' E 009°53'7318.3
2014-Sep-13 13:17N 40°55' E 009°31'1 0.8
2014-Sep-13 12:34N 40°55' E 009°32'12724.4
2014-Sep-13 07:21N 43°00' E 010°04'2126.8
2014-Sep-13 06:34N 43°21' E 010°11'1313.5
2014-Sep-13 05:33N 43°33' E 010°18'0 0.0
2014-Sep-13 04:33N 43°33' E 010°18'5 5.1
2014-Sep-13 03:33N 43°29' E 010°14'2323.4
2014-Sep-13 02:33N 43°06' E 010°07'  
Track history (hours):
 
Tides and Currents Weather Stations Pressure Air Temp Water Temp Dewpoint Dewpoint Depression Visibility Wind Speed Wind Dir Waves Ship Positions

Moby Aki

Last reported at 2014-Sep-22 22:16 UTC. Time now 2014-Sep-23 18:31 UTC.
Position N 42°54' E 009°60'.

Length 175 m; draft 6.9 m.

Type: Passenger vessel. MMSI: 247132400.

Date/timePositionNaut miles runAvg speedWind from/ knotsBaromVisibWave heightAir tempDewpointWater temp
2014-Sep-22 22:16N 42°54' E 009°60'1419.6
2014-Sep-22 21:33N 43°08' E 010°03'2121.0
2014-Sep-22 20:33N 43°28' E 010°10'8 8.0
2014-Sep-22 19:33N 43°33' E 010°18'0 0.0
2014-Sep-22 18:33N 43°33' E 010°18'0 0.0
2014-Sep-22 17:33N 43°33' E 010°18'0 0.0
2014-Sep-22 16:34N 43°33' E 010°18'0 0.0
2014-Sep-22 15:33N 43°33' E 010°18'0 0.0
2014-Sep-22 14:33N 43°33' E 010°18'0 0.0
2014-Sep-22 13:33N 43°33' E 010°18'0 0.0
2014-Sep-22 12:33N 43°33' E 010°18'0 0.0
2014-Sep-22 11:33N 43°33' E 010°18'0 0.0
2014-Sep-22 10:33N 43°33' E 010°18'0 0.0
2014-Sep-22 09:33N 43°33' E 010°18'0 0.0
2014-Sep-22 08:33N 43°33' E 010°18'0 0.0
2014-Sep-22 07:33N 43°33' E 010°18'0 0.0
2014-Sep-22 06:33N 43°33' E 010°18'1 0.9
2014-Sep-22 05:33N 43°32' E 010°17'1110.9
2014-Sep-22 04:33N 43°23' E 010°09'2020.4
2014-Sep-22 03:33N 43°04' E 009°59'13118.7
2014-Sep-21 20:34N 40°55' E 009°32'0 0.2
2014-Sep-21 19:33N 40°55' E 009°31'3 2.9
2014-Sep-21 18:34N 40°55' E 009°35'2323.1
2014-Sep-21 17:33N 41°09' E 010°00'5426.0
2014-Sep-21 15:29N 41°41' E 010°58'1 0.2
2014-Sep-21 10:23N 41°40' E 010°57'3126.3
2014-Sep-21 09:13N 41°22' E 010°24'4525.2
2014-Sep-21 07:25N 40°56' E 009°35'3 3.3
2014-Sep-21 06:33N 40°55' E 009°31'1 0.7
2014-Sep-21 05:33N 40°55' E 009°32'13121.9
2014-Sep-20 23:34N 43°04' E 010°05'2323.5
2014-Sep-20 22:34N 43°27' E 010°12'7 7.2
2014-Sep-20 21:33N 43°33' E 010°18'2 1.7
2014-Sep-20 20:34N 43°32' E 010°16'2424.1
2014-Sep-20 19:33N 43°09' E 010°07'2726.2
2014-Sep-20 18:31N 42°42' E 009°59'7826.3
2014-Sep-20 15:34N 41°25' E 009°44'2824.5
2014-Sep-20 14:25N 40°57' E 009°41'6 3.5
2014-Sep-20 12:33N 40°55' E 009°33'12525.0
2014-Sep-20 07:33N 42°58' E 010°04'2727.0
2014-Sep-20 06:34N 43°25' E 010°11'10 9.8
2014-Sep-20 05:33N 43°33' E 010°18'0 0.0
2014-Sep-20 04:34N 43°33' E 010°18'1111.1
2014-Sep-20 03:34N 43°23' E 010°11'2322.9
2014-Sep-20 02:33N 43°01' E 010°05'9323.1
2014-Sep-19 22:33N 41°29' E 009°47'2323.2
2014-Sep-19 21:34N 41°06' E 009°44'1514.4
2014-Sep-19 20:33N 40°55' E 009°31'0 0.0
2014-Sep-19 19:33N 40°55' E 009°31'0 0.0
2014-Sep-19 18:27N 40°55' E 009°31'0 0.0
2014-Sep-19 14:27N 40°55' E 009°31'0 0.0
2014-Sep-19 13:33N 40°55' E 009°31'13021.6
2014-Sep-19 07:33N 43°03' E 010°04'2525.4
2014-Sep-19 06:34N 43°27' E 010°11'8 7.7
2014-Sep-19 05:33N 43°33' E 010°18'1 0.5
2014-Sep-19 04:33N 43°33' E 010°17'1918.8
2014-Sep-19 03:33N 43°15' E 010°09'13921.5
2014-Sep-18 21:05N 40°58' E 009°41'814.1
2014-Sep-18 20:33N 40°55' E 009°32'0 0.3
2014-Sep-18 19:32N 40°55' E 009°31'0 0.0
2014-Sep-18 18:28N 40°55' E 009°31'0 0.0
2014-Sep-18 17:31N 40°55' E 009°31'0 0.0
2014-Sep-18 16:07N 40°55' E 009°31'0 0.0
2014-Sep-18 15:31N 40°55' E 009°31'0 0.0
2014-Sep-18 14:31N 40°55' E 009°31'0 0.0
2014-Sep-18 13:31N 40°55' E 009°31'12821.5
2014-Sep-18 07:33N 43°02' E 010°03'2525.0
2014-Sep-18 06:34N 43°26' E 010°12'9 8.7
2014-Sep-18 05:33N 43°33' E 010°18'0 0.0
2014-Sep-18 04:33N 43°33' E 010°18'1111.3
2014-Sep-18 03:34N 43°23' E 010°12'2623.0
2014-Sep-18 02:26N 42°58' E 010°04'12123.3
2014-Sep-17 21:15N 40°58' E 009°43'9 8.9
2014-Sep-17 20:15N 40°55' E 009°31'0 0.0
2014-Sep-17 19:32N 40°55' E 009°31'0 0.0
2014-Sep-17 17:29N 40°55' E 009°31'0 0.0
2014-Sep-17 16:32N 40°55' E 009°31'0 0.0
2014-Sep-17 15:29N 40°55' E 009°31'0 0.0
2014-Sep-17 14:32N 40°55' E 009°31'0 0.0
2014-Sep-17 13:23N 40°55' E 009°31'10521.7
2014-Sep-17 08:33N 42°38' E 009°59'2525.4
2014-Sep-17 07:34N 43°03' E 010°05'2625.7
2014-Sep-17 06:34N 43°28' E 010°12'6 6.3
2014-Sep-17 05:33N 43°33' E 010°18'0 0.0
2014-Sep-17 04:33N 43°33' E 010°18'8 8.3
2014-Sep-17 03:34N 43°26' E 010°12'2322.5
2014-Sep-17 02:34N 43°04' E 010°05'13121.8
2014-Sep-16 20:33N 40°55' E 009°32'1 0.6
2014-Sep-16 19:32N 40°55' E 009°31'0 0.0
2014-Sep-16 17:32N 40°55' E 009°31'0 0.0
2014-Sep-16 15:05N 40°55' E 009°31'0 0.0
2014-Sep-16 14:32N 40°55' E 009°31'0 0.0
2014-Sep-16 13:14N 40°55' E 009°31'13022.8
2014-Sep-16 07:34N 43°02' E 010°05'2525.5
2014-Sep-16 06:34N 43°27' E 010°12'7 7.1
2014-Sep-16 05:33N 43°33' E 010°18'0 0.0
2014-Sep-16 04:33N 43°33' E 010°18'1413.9
2014-Sep-16 03:34N 43°20' E 010°11'2222.3
2014-Sep-16 02:33N 42°59' E 010°04'12520.9
2014-Sep-15 20:33N 40°55' E 009°32'1 0.5
2014-Sep-15 19:33N 40°55' E 009°31'0 0.0
2014-Sep-15 18:09N 40°55' E 009°31'0 0.0
2014-Sep-15 17:26N 40°55' E 009°31'0 0.0
2014-Sep-15 15:32N 40°55' E 009°31'0 0.0
2014-Sep-15 14:32N 40°55' E 009°31'0 0.0
2014-Sep-15 13:20N 40°55' E 009°31'12621.9
2014-Sep-15 07:33N 42°60' E 010°03'2626.1
2014-Sep-15 06:34N 43°25' E 010°11'10 9.7
2014-Sep-15 05:33N 43°33' E 010°18'0 0.0
2014-Sep-15 04:33N 43°33' E 010°18'9 8.6
2014-Sep-15 03:34N 43°26' E 010°12'2322.6
2014-Sep-15 02:33N 43°03' E 010°06'13118.0
2014-Sep-14 19:18N 40°55' E 009°31'0 0.0
2014-Sep-14 18:33N 40°55' E 009°31'7919.8
2014-Sep-14 14:33N 42°06' E 010°20'2626.6
2014-Sep-14 13:34N 42°31' E 010°30'2522.9
2014-Sep-14 12:28N 42°56' E 010°33'1 1.5
2014-Sep-14 11:29N 42°54' E 010°34'2425.9
2014-Sep-14 10:33N 42°30' E 010°30'10325.6
2014-Sep-14 06:31N 40°55' E 009°35'3 2.8
2014-Sep-14 05:33N 40°55' E 009°31'8219.8
2014-Sep-14 01:24N 42°16' E 009°54'7920.7
2014-Sep-13 21:34N 43°33' E 010°18'4 3.6
2014-Sep-13 20:34N 43°30' E 010°15'2625.6
2014-Sep-13 19:33N 43°05' E 010°07'6026.2
2014-Sep-13 17:16N 42°07' E 009°53'7318.3
2014-Sep-13 13:17N 40°55' E 009°31'1 0.8
2014-Sep-13 12:34N 40°55' E 009°32'12724.4
2014-Sep-13 07:21N 43°00' E 010°04'2126.8
2014-Sep-13 06:34N 43°21' E 010°11'1313.5
2014-Sep-13 05:33N 43°33' E 010°18'0 0.0
2014-Sep-13 04:33N 43°33' E 010°18'5 5.1
2014-Sep-13 03:33N 43°29' E 010°14'2323.4
2014-Sep-13 02:33N 43°06' E 010°07'  

Dump ship's entire track history